createdAt,value
2022-10-05T00:00:21.141Z,0.00
2022-10-05T00:01:21.213Z,0.00
2022-10-05T00:02:21.153Z,0.00
2022-10-05T00:03:21.072Z,0.00
2022-10-05T00:04:22.000Z,0.00
2022-10-05T00:05:21.177Z,0.00
2022-10-05T00:06:21.802Z,0.00
2022-10-05T00:07:21.067Z,0.00
2022-10-05T00:08:21.878Z,0.00
2022-10-05T00:09:21.078Z,0.00
2022-10-05T00:10:21.035Z,0.00
2022-10-05T00:11:21.010Z,0.00
2022-10-05T00:12:21.998Z,0.00
2022-10-05T00:13:21.895Z,0.00
2022-10-05T00:14:20.964Z,0.00
2022-10-05T00:15:20.955Z,0.00
2022-10-05T00:16:21.937Z,0.00
2022-10-05T00:17:20.887Z,0.00
2022-10-05T00:18:22.365Z,0.00
2022-10-05T00:19:21.841Z,0.00
2022-10-05T00:20:20.855Z,0.00
2022-10-05T00:21:21.722Z,0.00
2022-10-05T00:22:21.809Z,0.00
2022-10-05T00:23:21.718Z,0.00
2022-10-05T00:24:20.821Z,0.00
2022-10-05T00:25:20.809Z,0.00
2022-10-05T00:26:21.670Z,0.00
2022-10-05T00:27:21.574Z,0.00
2022-10-05T00:28:21.531Z,0.00
2022-10-05T00:29:21.110Z,0.00
2022-10-05T00:30:20.841Z,0.00
2022-10-05T00:31:21.143Z,0.00
2022-10-05T00:32:21.611Z,0.00
2022-10-05T00:33:21.109Z,0.00
2022-10-05T00:34:21.438Z,0.00
2022-10-05T00:35:20.645Z,0.00
2022-10-05T00:36:20.670Z,0.00
2022-10-05T00:37:20.621Z,0.00
2022-10-05T00:38:20.624Z,0.00
2022-10-05T00:39:21.082Z,0.00
2022-10-05T00:40:21.357Z,0.00
2022-10-05T00:41:21.662Z,0.00
2022-10-05T00:42:20.598Z,0.00
2022-10-05T00:43:20.656Z,0.00
2022-10-05T00:44:21.480Z,0.00
2022-10-05T00:45:20.543Z,0.00
2022-10-05T00:46:20.663Z,0.00
2022-10-05T00:47:20.480Z,0.00
2022-10-05T00:48:20.474Z,0.00
2022-10-05T00:49:21.904Z,0.00
2022-10-05T00:50:20.608Z,0.00
2022-10-05T00:51:20.437Z,0.00
2022-10-05T00:52:20.512Z,0.00
2022-10-05T00:53:21.135Z,0.00
2022-10-05T00:54:20.526Z,0.00
2022-10-05T00:55:21.187Z,0.00
2022-10-05T00:56:21.096Z,0.00
2022-10-05T00:57:21.256Z,0.00
2022-10-05T00:58:20.337Z,0.00
2022-10-05T00:59:20.359Z,0.00
2022-10-05T01:00:20.347Z,0.00
2022-10-05T01:01:20.447Z,0.00
2022-10-05T01:02:20.382Z,0.00
2022-10-05T01:03:20.490Z,0.00
2022-10-05T01:04:20.408Z,0.00
2022-10-05T01:05:20.367Z,0.00
2022-10-05T01:06:20.349Z,0.00
2022-10-05T01:07:20.210Z,0.00
2022-10-05T01:08:20.209Z,0.00
2022-10-05T01:09:20.140Z,0.00
2022-10-05T01:10:20.209Z,0.00
2022-10-05T01:11:20.599Z,0.00
2022-10-05T01:12:20.173Z,0.00
2022-10-05T01:13:20.590Z,0.00
2022-10-05T01:14:20.146Z,0.00
2022-10-05T01:15:20.229Z,0.00
2022-10-05T01:16:21.022Z,0.00
2022-10-05T01:17:20.048Z,0.00
2022-10-05T01:18:20.772Z,0.00
2022-10-05T01:19:20.020Z,0.00
2022-10-05T01:20:20.839Z,0.00
2022-10-05T01:21:20.742Z,0.00
2022-10-05T01:22:20.904Z,0.00
2022-10-05T01:23:20.414Z,0.00
2022-10-05T01:24:20.020Z,0.00
2022-10-05T01:25:20.351Z,0.00
2022-10-05T01:26:19.933Z,0.00
2022-10-05T01:27:20.001Z,0.00
2022-10-05T01:28:20.405Z,0.00
2022-10-05T01:29:19.892Z,0.00
2022-10-05T01:30:19.904Z,0.00
2022-10-05T01:31:20.413Z,0.00
2022-10-05T01:32:20.424Z,0.00
2022-10-05T01:33:20.614Z,0.00
2022-10-05T01:34:20.356Z,0.00
2022-10-05T01:35:20.415Z,0.00
2022-10-05T01:36:20.397Z,0.00
2022-10-05T01:37:19.797Z,0.00
2022-10-05T01:38:19.864Z,0.00
2022-10-05T01:39:19.814Z,0.00
2022-10-05T01:40:20.713Z,0.00
2022-10-05T01:41:20.615Z,0.00
2022-10-05T01:42:19.706Z,0.00
2022-10-05T01:43:20.347Z,0.00
2022-10-05T01:44:21.612Z,0.00
2022-10-05T01:45:19.951Z,0.00
2022-10-05T01:46:20.518Z,0.00
2022-10-05T01:47:19.608Z,0.00
2022-10-05T01:48:19.706Z,0.00
2022-10-05T01:49:20.360Z,0.00
2022-10-05T01:50:19.616Z,0.00
2022-10-05T01:51:20.539Z,0.00
2022-10-05T01:52:20.338Z,0.00
2022-10-05T01:53:19.528Z,0.00
2022-10-05T01:54:20.402Z,0.00
2022-10-05T01:55:19.519Z,0.00
2022-10-05T01:56:20.458Z,0.00
2022-10-05T01:57:19.509Z,0.00
2022-10-05T01:58:20.275Z,0.00
2022-10-05T01:59:20.422Z,0.00
2022-10-05T02:00:20.333Z,0.00
2022-10-05T02:01:19.564Z,0.00
2022-10-05T02:02:19.558Z,0.00
2022-10-05T02:03:20.298Z,0.00
2022-10-05T02:04:42.670Z,0.00
2022-10-05T02:05:21.826Z,0.00
2022-10-05T02:06:20.283Z,0.00
2022-10-05T02:07:19.491Z,0.00
2022-10-05T02:08:19.612Z,0.00
2022-10-05T02:09:19.363Z,0.00
2022-10-05T02:10:20.202Z,0.00
2022-10-05T02:11:19.341Z,0.00
2022-10-05T02:12:20.223Z,0.00
2022-10-05T02:13:20.101Z,0.00
2022-10-05T02:14:19.451Z,0.00
2022-10-05T02:15:19.991Z,0.00
2022-10-05T02:16:20.147Z,0.00
2022-10-05T02:17:19.473Z,0.00
2022-10-05T02:18:19.303Z,0.00
2022-10-05T02:19:20.042Z,0.00
2022-10-05T02:20:19.574Z,0.00
2022-10-05T02:21:19.263Z,0.00
2022-10-05T02:22:20.005Z,0.00
2022-10-05T02:23:19.228Z,0.00
2022-10-05T02:24:19.325Z,0.00
2022-10-05T02:25:19.197Z,0.00
2022-10-05T02:26:19.465Z,0.00
2022-10-05T02:27:19.105Z,0.00
2022-10-05T02:28:19.544Z,0.00
2022-10-05T02:29:19.085Z,0.00
2022-10-05T02:30:19.084Z,0.00
2022-10-05T02:31:19.529Z,0.00
2022-10-05T02:32:19.261Z,0.00
2022-10-05T02:33:19.034Z,0.00
2022-10-05T02:34:18.977Z,0.00
2022-10-05T02:35:19.188Z,0.00
2022-10-05T02:36:19.388Z,0.00
2022-10-05T02:37:19.846Z,0.00
2022-10-05T02:38:18.929Z,0.00
2022-10-05T02:39:19.475Z,0.00
2022-10-05T02:40:18.927Z,0.00
2022-10-05T02:41:19.508Z,0.00
2022-10-05T02:42:18.912Z,0.00
2022-10-05T02:43:19.020Z,0.00
2022-10-05T02:44:18.910Z,0.00
2022-10-05T02:45:19.091Z,0.00
2022-10-05T02:46:19.828Z,0.00
2022-10-05T02:47:19.200Z,0.00
2022-10-05T02:48:18.872Z,0.00
2022-10-05T02:49:19.229Z,0.00
2022-10-05T02:50:18.838Z,0.00
2022-10-05T02:51:18.995Z,0.00
2022-10-05T02:52:20.216Z,0.00
2022-10-05T02:53:18.722Z,0.00
2022-10-05T02:54:18.724Z,0.00
2022-10-05T02:55:18.731Z,0.00
2022-10-05T02:56:19.341Z,0.00
2022-10-05T02:57:19.557Z,0.00
2022-10-05T02:58:19.310Z,0.00
2022-10-05T02:59:18.720Z,0.00
2022-10-05T03:00:19.440Z,0.00
2022-10-05T03:01:18.783Z,0.00
2022-10-05T03:02:19.585Z,0.00
2022-10-05T03:03:18.772Z,0.00
2022-10-05T03:04:20.024Z,0.00
2022-10-05T03:05:19.065Z,0.00
2022-10-05T03:06:19.404Z,0.00
2022-10-05T03:07:18.544Z,0.00
2022-10-05T03:08:19.428Z,0.00
2022-10-05T03:09:19.334Z,0.00
2022-10-05T03:10:18.786Z,0.00
2022-10-05T03:11:18.964Z,0.00
2022-10-05T03:12:18.865Z,0.00
2022-10-05T03:13:19.058Z,0.00
2022-10-05T03:14:18.737Z,0.00
2022-10-05T03:15:19.933Z,0.00
2022-10-05T03:16:18.480Z,0.00
2022-10-05T03:17:19.038Z,0.00
2022-10-05T03:18:18.966Z,0.00
2022-10-05T03:19:19.140Z,0.00
2022-10-05T03:20:18.349Z,0.00
2022-10-05T03:21:18.598Z,0.00
2022-10-05T03:22:18.896Z,0.00
2022-10-05T03:23:19.270Z,0.00
2022-10-05T03:24:18.406Z,0.00
2022-10-05T03:25:18.458Z,0.00
2022-10-05T03:26:18.625Z,0.00
2022-10-05T03:27:52.855Z,0.00
2022-10-05T03:28:31.181Z,0.00
2022-10-05T03:29:19.969Z,0.00
2022-10-05T03:30:19.128Z,0.00
2022-10-05T03:31:29.432Z,0.00
2022-10-05T03:32:18.230Z,0.00
2022-10-05T03:33:21.730Z,0.00
2022-10-05T03:34:19.303Z,0.00
2022-10-05T03:35:19.118Z,0.00
2022-10-05T03:36:19.994Z,0.00
2022-10-05T03:37:20.398Z,0.00
2022-10-05T03:38:18.502Z,0.00
2022-10-05T03:39:18.923Z,0.00
2022-10-05T03:40:18.741Z,0.00
2022-10-05T03:41:23.551Z,0.00
2022-10-05T03:42:25.812Z,0.00
2022-10-05T03:43:20.331Z,0.00
2022-10-05T03:52:01.720Z,0.00
2022-10-05T03:53:01.468Z,0.00
2022-10-05T03:54:03.838Z,0.00
2022-10-05T03:55:05.781Z,0.00
2022-10-05T03:56:05.897Z,0.00
2022-10-05T04:05:12.671Z,0.00
2022-10-05T04:07:50.575Z,0.00
2022-10-05T04:08:50.636Z,0.00
2022-10-05T04:09:50.202Z,0.00
2022-10-05T04:10:50.075Z,0.00
2022-10-05T04:11:50.154Z,0.00
2022-10-05T04:12:50.085Z,0.00
2022-10-05T04:13:50.065Z,0.00
2022-10-05T04:14:51.655Z,0.00
2022-10-05T04:15:50.598Z,0.00
2022-10-05T04:16:50.012Z,0.00
2022-10-05T04:17:50.056Z,0.00
2022-10-05T04:19:00.416Z,0.00
2022-10-05T04:19:50.078Z,0.00
2022-10-05T04:20:50.127Z,0.00
2022-10-05T04:21:50.115Z,0.00
2022-10-05T04:22:50.528Z,0.00
2022-10-05T04:24:00.526Z,0.00
2022-10-05T04:24:50.145Z,0.00
2022-10-05T04:25:50.002Z,0.00
2022-10-05T04:26:50.125Z,0.00
2022-10-05T04:27:49.917Z,0.00
2022-10-05T04:28:50.114Z,0.00
2022-10-05T04:29:50.723Z,0.00
2022-10-05T04:30:49.871Z,0.00
2022-10-05T04:31:50.456Z,0.00
2022-10-05T04:32:50.653Z,0.00
2022-10-05T04:33:49.855Z,0.00
2022-10-05T04:34:49.773Z,0.00
2022-10-05T04:35:49.812Z,0.00
2022-10-05T04:36:49.742Z,0.00
2022-10-05T04:37:49.749Z,0.00
2022-10-05T04:38:49.697Z,0.00
2022-10-05T04:39:49.765Z,0.00
2022-10-05T04:40:49.972Z,0.00
2022-10-05T04:41:49.787Z,0.00
2022-10-05T04:42:49.652Z,0.00
2022-10-05T04:43:50.445Z,0.00
2022-10-05T04:44:49.679Z,0.00
2022-10-05T04:45:49.587Z,0.00
2022-10-05T04:46:50.000Z,0.00
2022-10-05T04:47:50.957Z,0.00
2022-10-05T04:48:49.552Z,0.00
2022-10-05T04:49:49.609Z,0.00
2022-10-05T04:50:49.534Z,0.00
2022-10-05T04:51:51.312Z,0.00
2022-10-05T04:52:49.514Z,0.00
2022-10-05T04:53:49.545Z,0.00
2022-10-05T04:54:49.528Z,0.00
2022-10-05T04:55:49.473Z,0.00
2022-10-05T04:56:49.831Z,0.00
2022-10-05T04:57:49.652Z,0.00
2022-10-05T04:58:49.504Z,4.00
2022-10-05T04:59:49.527Z,4.00
2022-10-05T05:00:49.971Z,4.00
2022-10-05T05:01:49.434Z,4.00
2022-10-05T05:02:49.816Z,4.00
2022-10-05T05:03:49.396Z,4.00
2022-10-05T05:04:51.842Z,8.00
2022-10-05T05:06:15.328Z,8.00
2022-10-05T05:06:50.398Z,8.00
2022-10-05T05:07:49.312Z,12.00
2022-10-05T05:13:15.595Z,28.00
2022-10-05T05:14:14.393Z,32.00
2022-10-05T05:15:15.173Z,40.00
2022-10-05T05:16:15.153Z,48.00
2022-10-05T05:17:15.244Z,52.00
2022-10-05T05:18:14.323Z,60.00
2022-10-05T05:19:14.303Z,64.00
2022-10-05T05:20:14.403Z,72.00
2022-10-05T05:21:15.118Z,76.00
2022-10-05T05:22:14.245Z,88.00
2022-10-05T05:23:14.284Z,88.00
2022-10-05T05:24:14.264Z,96.00
2022-10-05T05:25:14.984Z,104.00
2022-10-05T05:26:14.206Z,112.00
2022-10-05T05:27:14.238Z,124.00
2022-10-05T05:28:14.181Z,132.00
2022-10-05T05:29:14.186Z,144.00
2022-10-05T05:30:14.257Z,152.00
2022-10-05T05:31:14.368Z,168.00
2022-10-05T05:32:14.176Z,184.00
2022-10-05T05:33:16.009Z,204.00
2022-10-05T05:34:14.236Z,224.00
2022-10-05T05:35:14.166Z,244.00
2022-10-05T05:36:14.062Z,268.00
2022-10-05T05:37:14.098Z,288.00
2022-10-05T05:38:14.025Z,316.00
2022-10-05T05:39:14.341Z,336.00
2022-10-05T05:40:14.288Z,360.00
2022-10-05T05:41:14.500Z,408.00
2022-10-05T05:42:14.025Z,464.00
2022-10-05T05:43:14.582Z,528.00
2022-10-05T05:44:14.703Z,576.00
2022-10-05T05:45:14.822Z,616.00
2022-10-05T05:46:13.955Z,652.00
2022-10-05T05:47:14.387Z,672.00
2022-10-05T05:48:13.949Z,692.00
2022-10-05T05:49:14.743Z,696.00
2022-10-05T05:50:14.061Z,748.00
2022-10-05T05:51:14.230Z,804.00
2022-10-05T05:52:14.367Z,856.00
2022-10-05T05:53:14.360Z,940.00
2022-10-05T05:54:13.893Z,1016.00
2022-10-05T05:55:13.803Z,1060.00
2022-10-05T05:56:13.769Z,1096.00
2022-10-05T05:57:13.985Z,1128.00
2022-10-05T05:58:13.884Z,1180.00
2022-10-05T05:59:14.185Z,1264.00
2022-10-05T06:00:14.001Z,1320.00
2022-10-05T06:01:31.838Z,1392.00
2022-10-05T06:02:14.785Z,1484.00
2022-10-05T06:03:13.823Z,1524.00
2022-10-05T06:04:14.167Z,1572.00
2022-10-05T06:05:13.772Z,1640.00
2022-10-05T06:06:14.205Z,1636.00
2022-10-05T06:07:14.349Z,1612.00
2022-10-05T06:08:13.596Z,1548.00
2022-10-05T06:09:13.596Z,1456.00
2022-10-05T06:10:13.938Z,1384.00
2022-10-05T06:11:14.777Z,1364.00
2022-10-05T06:12:13.838Z,1408.00
2022-10-05T06:13:14.400Z,1512.00
2022-10-05T06:14:13.857Z,1628.00
2022-10-05T06:15:13.609Z,1740.00
2022-10-05T06:16:13.547Z,1852.00
2022-10-05T06:17:14.209Z,1968.00
2022-10-05T06:18:13.789Z,2076.00
2022-10-05T06:19:13.829Z,2192.00
2022-10-05T06:20:14.159Z,2300.00
2022-10-05T06:21:14.355Z,2400.00
2022-10-05T06:22:13.438Z,2480.00
2022-10-05T06:23:14.301Z,2520.00
2022-10-05T06:24:13.411Z,2560.00
2022-10-05T06:25:14.340Z,2572.00
2022-10-05T06:26:13.808Z,2588.00
2022-10-05T06:27:13.858Z,2604.00
2022-10-05T06:28:14.349Z,2648.00
2022-10-05T06:29:14.211Z,2716.00
2022-10-05T06:30:13.290Z,2808.00
2022-10-05T06:31:13.348Z,2944.00
2022-10-05T06:32:13.271Z,3124.00
2022-10-05T06:33:13.301Z,3300.00
2022-10-05T06:34:13.311Z,3456.00
2022-10-05T06:35:13.202Z,3596.00
2022-10-05T06:36:14.077Z,3732.00
2022-10-05T06:37:13.318Z,3828.00
2022-10-05T06:38:13.354Z,3928.00
2022-10-05T06:39:13.733Z,4228.00
2022-10-05T06:40:14.005Z,4536.00
2022-10-05T06:41:13.371Z,4688.00
2022-10-05T06:42:13.525Z,4808.00
2022-10-05T06:43:14.466Z,4936.00
2022-10-05T06:44:14.069Z,5068.00
2022-10-05T06:45:13.363Z,5192.00
2022-10-05T06:46:13.106Z,5340.00
2022-10-05T06:47:13.297Z,5524.00
2022-10-05T06:48:13.374Z,5704.00
2022-10-05T06:49:13.085Z,5888.00
2022-10-05T06:50:13.185Z,6060.00
2022-10-05T06:51:13.076Z,6308.00
2022-10-05T06:52:13.028Z,6448.00
2022-10-05T06:53:12.978Z,6396.00
2022-10-05T06:54:13.518Z,6312.00
2022-10-05T06:55:14.279Z,6252.00
2022-10-05T06:56:13.613Z,6084.00
2022-10-05T06:57:12.977Z,5988.00
2022-10-05T06:58:13.577Z,6280.00
2022-10-05T06:59:13.232Z,6500.00
2022-10-05T07:00:13.419Z,6684.00
2022-10-05T07:01:15.362Z,6856.00
2022-10-05T07:02:13.745Z,6860.00
2022-10-05T07:03:12.849Z,6596.00
2022-10-05T07:04:13.340Z,6184.00
2022-10-05T07:05:12.884Z,6080.00
2022-10-05T07:06:12.820Z,5972.00
2022-10-05T07:07:13.038Z,5916.00
2022-10-05T07:08:12.834Z,6168.00
2022-10-05T07:09:13.902Z,6280.00
2022-10-05T07:10:12.781Z,6200.00
2022-10-05T07:11:12.722Z,6292.00
2022-10-05T07:12:12.795Z,6376.00
2022-10-05T07:13:12.752Z,6380.00
2022-10-05T07:14:13.449Z,6272.00
2022-10-05T07:15:12.863Z,6152.00
2022-10-05T07:16:13.141Z,6236.00
2022-10-05T07:17:12.860Z,6492.00
2022-10-05T07:18:12.992Z,6652.00
2022-10-05T07:19:12.854Z,6992.00
2022-10-05T07:20:13.085Z,7368.00
2022-10-05T07:21:12.915Z,7540.00
2022-10-05T07:22:12.652Z,7636.00
2022-10-05T07:23:13.215Z,7692.00
2022-10-05T07:24:12.810Z,7648.00
2022-10-05T07:25:13.372Z,7704.00
2022-10-05T07:26:12.499Z,7864.00
2022-10-05T07:27:12.950Z,7896.00
2022-10-05T07:28:13.398Z,8156.00
2022-10-05T07:29:13.178Z,8608.00
2022-10-05T07:30:12.818Z,8912.00
2022-10-05T07:31:13.553Z,8992.00
2022-10-05T07:32:13.289Z,8928.00
2022-10-05T07:33:12.380Z,8972.00
2022-10-05T07:34:12.437Z,9236.00
2022-10-05T07:35:13.249Z,9116.00
2022-10-05T07:36:13.159Z,8824.00
2022-10-05T07:37:12.330Z,8652.00
2022-10-05T07:38:12.330Z,8836.00
2022-10-05T07:39:12.321Z,9216.00
2022-10-05T07:40:13.294Z,9308.00
2022-10-05T07:41:12.306Z,9580.00
2022-10-05T07:42:13.092Z,10232.00
2022-10-05T07:43:13.253Z,10596.00
2022-10-05T07:44:13.251Z,10512.00
2022-10-05T07:45:13.061Z,10712.00
2022-10-05T07:46:13.007Z,10948.00
2022-10-05T07:47:12.203Z,10604.00
2022-10-05T07:48:13.032Z,10460.00
2022-10-05T07:49:12.934Z,10188.00
2022-10-05T07:50:13.094Z,10096.00
2022-10-05T07:51:12.133Z,9924.00
2022-10-05T07:52:12.905Z,9416.00
2022-10-05T07:53:13.065Z,9392.00
2022-10-05T07:54:12.965Z,10272.00
2022-10-05T07:55:12.864Z,10688.00
2022-10-05T07:56:13.034Z,10708.00
2022-10-05T07:57:12.937Z,10920.00
2022-10-05T07:58:12.840Z,11176.00
2022-10-05T07:59:12.018Z,10968.00
2022-10-05T08:00:12.031Z,10004.00
2022-10-05T08:01:12.806Z,8956.00
2022-10-05T08:02:13.038Z,8316.00
2022-10-05T08:03:12.020Z,8080.00
2022-10-05T08:04:12.775Z,7840.00
2022-10-05T08:05:12.901Z,7320.00
2022-10-05T08:06:12.838Z,7168.00
2022-10-05T08:07:12.832Z,7328.00
2022-10-05T08:08:14.309Z,7260.00
2022-10-05T08:09:12.809Z,7580.00
2022-10-05T08:10:11.882Z,7900.00
2022-10-05T08:11:11.861Z,8112.00
2022-10-05T08:12:12.192Z,7948.00
2022-10-05T08:13:12.682Z,8012.00
2022-10-05T08:14:12.595Z,8048.00
2022-10-05T08:15:12.071Z,8244.00
2022-10-05T08:16:13.357Z,7696.00
2022-10-05T08:17:12.104Z,7428.00
2022-10-05T08:18:12.074Z,7528.00
2022-10-05T08:19:12.143Z,7696.00
2022-10-05T08:20:12.159Z,7684.00
2022-10-05T08:21:12.692Z,7560.00
2022-10-05T08:22:11.697Z,8088.00
2022-10-05T08:23:12.484Z,8216.00
2022-10-05T08:24:11.683Z,8004.00
2022-10-05T08:25:12.554Z,7820.00
2022-10-05T08:26:12.455Z,7356.00
2022-10-05T08:27:12.615Z,8052.00
2022-10-05T08:28:12.559Z,8264.00
2022-10-05T08:29:13.891Z,8964.00
2022-10-05T08:30:11.597Z,10088.00
2022-10-05T08:31:12.512Z,10520.00
2022-10-05T08:32:11.556Z,10572.00
2022-10-05T08:33:12.465Z,10792.00
2022-10-05T08:34:11.530Z,11488.00
2022-10-05T08:35:11.629Z,11628.00
2022-10-05T08:36:12.259Z,12136.00
2022-10-05T08:37:12.417Z,12532.00
2022-10-05T08:38:12.339Z,13488.00
2022-10-05T08:39:12.228Z,13024.00
2022-10-05T08:40:12.496Z,13428.00
2022-10-05T08:41:12.298Z,13460.00
2022-10-05T08:42:11.409Z,13012.00
2022-10-05T08:43:11.390Z,12376.00
2022-10-05T08:44:12.263Z,11740.00
2022-10-05T08:45:11.398Z,11616.00
2022-10-05T08:46:11.364Z,12212.00
2022-10-05T08:47:12.230Z,13044.00
2022-10-05T08:48:12.787Z,12332.00
2022-10-05T08:49:12.291Z,11496.00
2022-10-05T08:50:11.443Z,12356.00
2022-10-05T08:51:12.107Z,12340.00
2022-10-05T08:52:11.295Z,11276.00
2022-10-05T08:53:11.293Z,10996.00
2022-10-05T08:54:11.235Z,11492.00
2022-10-05T08:55:11.316Z,11256.00
2022-10-05T08:56:15.295Z,11496.00
2022-10-05T08:57:13.065Z,11884.00
2022-10-05T08:58:11.954Z,12752.00
2022-10-05T08:59:12.605Z,12612.00
2022-10-05T09:00:12.047Z,12400.00
2022-10-05T09:01:11.212Z,13228.00
2022-10-05T09:02:12.091Z,14516.00
2022-10-05T09:03:11.976Z,14752.00
2022-10-05T09:04:11.105Z,15324.00
2022-10-05T09:05:11.117Z,16080.00
2022-10-05T09:06:11.938Z,16864.00
2022-10-05T09:07:11.848Z,17056.00
2022-10-05T09:08:12.012Z,17024.00
2022-10-05T09:09:11.018Z,16532.00
2022-10-05T09:10:11.028Z,15644.00
2022-10-05T09:11:11.974Z,14724.00
2022-10-05T09:12:11.882Z,12228.00
2022-10-05T09:13:11.779Z,13052.00
2022-10-05T09:14:10.999Z,14044.00
2022-10-05T09:15:25.491Z,13204.00
2022-10-05T09:16:12.841Z,12772.00
2022-10-05T09:17:11.918Z,12016.00
2022-10-05T09:18:11.119Z,11268.00
2022-10-05T09:19:11.798Z,10776.00
2022-10-05T09:20:10.997Z,10724.00
2022-10-05T09:21:11.792Z,10444.00
2022-10-05T09:22:11.173Z,10596.00
2022-10-05T09:23:11.416Z,10676.00
2022-10-05T09:24:11.752Z,9808.00
2022-10-05T09:25:11.441Z,9480.00
2022-10-05T09:26:10.888Z,9796.00
2022-10-05T09:27:11.606Z,9268.00
2022-10-05T09:28:10.826Z,9648.00
2022-10-05T09:29:10.903Z,10748.00
2022-10-05T09:30:10.827Z,9748.00
2022-10-05T09:31:11.682Z,8672.00
2022-10-05T09:32:15.576Z,8432.00
2022-10-05T09:33:12.688Z,8976.00
2022-10-05T09:34:10.673Z,9792.00
2022-10-05T09:35:11.583Z,10464.00
2022-10-05T09:36:10.721Z,10444.00
2022-10-05T09:37:10.642Z,10756.00
2022-10-05T09:38:10.662Z,10780.00
2022-10-05T09:39:10.834Z,10444.00
2022-10-05T09:40:11.499Z,11172.00
2022-10-05T09:41:11.449Z,11300.00
2022-10-05T09:42:10.696Z,11296.00
2022-10-05T09:43:11.472Z,11292.00
2022-10-05T09:44:10.578Z,10808.00
2022-10-05T09:45:10.533Z,10832.00
2022-10-05T09:46:11.556Z,11144.00
2022-10-05T09:47:10.523Z,11016.00
2022-10-05T09:48:11.307Z,11316.00
2022-10-05T09:49:10.459Z,10636.00
2022-10-05T09:50:10.575Z,9908.00
2022-10-05T09:51:10.514Z,10544.00
2022-10-05T09:52:13.066Z,11584.00
2022-10-05T09:53:10.899Z,10208.00
2022-10-05T09:54:10.438Z,9956.00
2022-10-05T09:55:10.438Z,10844.00
2022-10-05T09:56:10.412Z,12564.00
2022-10-05T09:57:10.511Z,12812.00
2022-10-05T09:58:10.565Z,12812.00
2022-10-05T09:59:10.438Z,11420.00
2022-10-05T10:00:10.388Z,12140.00
2022-10-05T10:01:29.084Z,13796.00
2022-10-05T10:02:11.470Z,13904.00
2022-10-05T10:03:10.436Z,11684.00
2022-10-05T10:04:10.401Z,9272.00
2022-10-05T10:05:10.495Z,8928.00
2022-10-05T10:06:10.275Z,12792.00
2022-10-05T10:07:10.336Z,13328.00
2022-10-05T10:08:10.409Z,13432.00
2022-10-05T10:09:10.455Z,14360.00
2022-10-05T10:10:10.204Z,15140.00
2022-10-05T10:11:10.218Z,15912.00
2022-10-05T10:12:10.254Z,17088.00
2022-10-05T10:13:10.199Z,16380.00
2022-10-05T10:14:10.621Z,15848.00
2022-10-05T10:15:10.192Z,15080.00
2022-10-05T10:16:10.459Z,15156.00
2022-10-05T10:17:10.150Z,17376.00
2022-10-05T10:18:10.241Z,16928.00
2022-10-05T10:19:10.032Z,15080.00
2022-10-05T10:20:10.227Z,15556.00
2022-10-05T10:21:10.173Z,15696.00
2022-10-05T10:22:10.161Z,16188.00
2022-10-05T10:23:10.122Z,16016.00
2022-10-05T10:24:10.175Z,14580.00
2022-10-05T10:25:10.836Z,14636.00
2022-10-05T10:26:10.057Z,15136.00
2022-10-05T10:27:10.061Z,14560.00
2022-10-05T10:28:09.969Z,13356.00
2022-10-05T10:29:10.249Z,13180.00
2022-10-05T10:30:09.940Z,13012.00
2022-10-05T10:31:10.181Z,15836.00
2022-10-05T10:32:10.206Z,18528.00
2022-10-05T10:33:10.011Z,19264.00
2022-10-05T10:34:10.145Z,17568.00
2022-10-05T10:35:09.884Z,15532.00
2022-10-05T10:36:09.877Z,15556.00
2022-10-05T10:37:09.834Z,16408.00
2022-10-05T10:38:09.877Z,16352.00
2022-10-05T10:39:09.785Z,17408.00
2022-10-05T10:40:09.859Z,16648.00
2022-10-05T10:41:09.797Z,15344.00
2022-10-05T10:42:10.075Z,14424.00
2022-10-05T10:43:09.780Z,14348.00
2022-10-05T10:44:09.821Z,12840.00
2022-10-05T10:45:09.771Z,12416.00
2022-10-05T10:46:09.873Z,12712.00
2022-10-05T10:47:09.792Z,12096.00
2022-10-05T10:48:09.790Z,12212.00
2022-10-05T10:49:09.664Z,13652.00
2022-10-05T10:50:10.306Z,14444.00
2022-10-05T10:51:09.702Z,14952.00
2022-10-05T10:52:09.661Z,15740.00
2022-10-05T10:53:10.078Z,15660.00
2022-10-05T10:54:09.963Z,14548.00
2022-10-05T10:55:10.756Z,13880.00
2022-10-05T10:56:10.339Z,15128.00
2022-10-05T10:57:09.806Z,15548.00
2022-10-05T10:58:15.057Z,15452.00
2022-10-05T10:59:10.754Z,14184.00
2022-10-05T11:00:09.891Z,12660.00
2022-10-05T11:01:09.909Z,10500.00
2022-10-05T11:02:09.506Z,9124.00
2022-10-05T11:03:09.855Z,10588.00
2022-10-05T11:04:09.884Z,13844.00
2022-10-05T11:05:09.948Z,13712.00
2022-10-05T11:06:09.541Z,12640.00
2022-10-05T11:07:09.639Z,12916.00
2022-10-05T11:08:09.553Z,11852.00
2022-10-05T11:09:09.499Z,11960.00
2022-10-05T11:10:09.412Z,13956.00
2022-10-05T11:11:09.344Z,13620.00
2022-10-05T11:12:09.264Z,13820.00
2022-10-05T11:13:09.441Z,14452.00
2022-10-05T11:14:09.621Z,13780.00
2022-10-05T11:15:09.543Z,12996.00
2022-10-05T11:16:09.503Z,13248.00
2022-10-05T11:17:09.456Z,14012.00
2022-10-05T11:18:09.545Z,13804.00
2022-10-05T11:19:09.294Z,14060.00
2022-10-05T11:20:09.297Z,13536.00
2022-10-05T11:21:09.326Z,13040.00
2022-10-05T11:22:09.325Z,12348.00
2022-10-05T11:23:09.197Z,11828.00
2022-10-05T11:24:09.224Z,11660.00
2022-10-05T11:25:10.409Z,12184.00
2022-10-05T11:26:09.253Z,12548.00
2022-10-05T11:27:09.177Z,13516.00
2022-10-05T11:28:09.302Z,15404.00
2022-10-05T11:29:09.182Z,17824.00
2022-10-05T11:30:09.440Z,16080.00
2022-10-05T11:31:09.300Z,14312.00
2022-10-05T11:32:09.061Z,12936.00
2022-10-05T11:33:09.711Z,13236.00
2022-10-05T11:34:09.218Z,13472.00
2022-10-05T11:35:08.970Z,12956.00
2022-10-05T11:36:09.082Z,12576.00
2022-10-05T11:37:09.212Z,11808.00
2022-10-05T11:38:09.432Z,12020.00
2022-10-05T11:39:09.267Z,13752.00
2022-10-05T11:40:08.942Z,14060.00
2022-10-05T11:41:08.892Z,12560.00
2022-10-05T11:42:09.015Z,11668.00
2022-10-05T11:43:09.540Z,11736.00
2022-10-05T11:44:08.883Z,12200.00
2022-10-05T11:45:08.883Z,12080.00
2022-10-05T11:46:08.992Z,13876.00
2022-10-05T11:47:08.851Z,15024.00
2022-10-05T11:48:09.554Z,15804.00
2022-10-05T11:49:09.054Z,13904.00
2022-10-05T11:50:08.849Z,12284.00
2022-10-05T11:51:09.318Z,12172.00
2022-10-05T11:52:09.012Z,14032.00
2022-10-05T11:53:08.766Z,16248.00
2022-10-05T11:54:08.747Z,15360.00
2022-10-05T11:55:11.621Z,15164.00
2022-10-05T11:56:08.816Z,16060.00
2022-10-05T11:57:08.912Z,14888.00
2022-10-05T11:58:08.769Z,16164.00
2022-10-05T11:59:08.725Z,15956.00
2022-10-05T12:00:08.670Z,15772.00
2022-10-05T12:01:08.649Z,18208.00
2022-10-05T12:02:08.729Z,20064.00
2022-10-05T12:03:09.148Z,20064.00
2022-10-05T12:04:08.976Z,21056.00
2022-10-05T12:05:08.680Z,21440.00
2022-10-05T12:06:08.725Z,20224.00
2022-10-05T12:07:08.587Z,21792.00
2022-10-05T12:08:08.581Z,20320.00
2022-10-05T12:09:08.552Z,17440.00
2022-10-05T12:10:08.654Z,17440.00
2022-10-05T12:11:08.691Z,16736.00
2022-10-05T12:12:08.660Z,17856.00
2022-10-05T12:13:08.537Z,20416.00
2022-10-05T12:14:08.435Z,21344.00
2022-10-05T12:15:08.445Z,24960.00
2022-10-05T12:16:08.510Z,23904.00
2022-10-05T12:17:08.814Z,22976.00
2022-10-05T12:18:08.736Z,49504.00
2022-10-05T12:19:08.383Z,24672.00
2022-10-05T12:20:08.564Z,18912.00
2022-10-05T12:21:08.419Z,23136.00
2022-10-05T12:22:08.368Z,26368.00
2022-10-05T12:23:08.436Z,24320.00
2022-10-05T12:24:08.308Z,28512.00
2022-10-05T12:25:08.323Z,29920.00
2022-10-05T12:26:08.320Z,20512.00
2022-10-05T12:27:08.321Z,18528.00
2022-10-05T12:28:08.316Z,19296.00
2022-10-05T12:29:08.382Z,19040.00
2022-10-05T12:30:08.210Z,19392.00
2022-10-05T12:31:08.419Z,23392.00
2022-10-05T12:32:08.248Z,21856.00
2022-10-05T12:33:08.311Z,22592.00
2022-10-05T12:34:08.153Z,43904.00
2022-10-05T12:35:08.234Z,26528.00
2022-10-05T12:36:08.347Z,69856.00
2022-10-05T12:37:08.299Z,65056.00
2022-10-05T12:38:09.223Z,18656.00
2022-10-05T12:39:08.208Z,23168.00
2022-10-05T12:40:08.208Z,21088.00
2022-10-05T12:41:08.316Z,19168.00
2022-10-05T12:42:08.177Z,30752.00
2022-10-05T12:43:08.334Z,19680.00
2022-10-05T12:44:08.226Z,21536.00
2022-10-05T12:45:08.058Z,22688.00
2022-10-05T12:46:08.107Z,19680.00
2022-10-05T12:47:08.028Z,18880.00